sensor_id;sensor_type;location;lat;lon;timestamp;P1;durP1;ratioP1;P2;durP2;ratioP2
3941;SDS011;1985;48.592;8.850;2023-04-15T00:01:20;9.00;;;1.80;;
3941;SDS011;1985;48.592;8.850;2023-04-15T00:03:46;10.45;;;2.00;;
3941;SDS011;1985;48.592;8.850;2023-04-15T00:06:16;9.27;;;1.60;;
3941;SDS011;1985;48.592;8.850;2023-04-15T00:08:41;8.57;;;1.53;;
3941;SDS011;1985;48.592;8.850;2023-04-15T00:11:07;10.45;;;1.80;;
3941;SDS011;1985;48.592;8.850;2023-04-15T00:13:33;10.00;;;1.80;;
3941;SDS011;1985;48.592;8.850;2023-04-15T00:15:58;9.70;;;1.80;;
3941;SDS011;1985;48.592;8.850;2023-04-15T00:18:25;9.57;;;2.20;;
3941;SDS011;1985;48.592;8.850;2023-04-15T00:20:51;10.37;;;1.63;;
3941;SDS011;1985;48.592;8.850;2023-04-15T00:23:17;9.27;;;1.60;;
3941;SDS011;1985;48.592;8.850;2023-04-15T00:25:43;9.60;;;1.80;;
3941;SDS011;1985;48.592;8.850;2023-04-15T00:28:08;11.82;;;2.60;;
3941;SDS011;1985;48.592;8.850;2023-04-15T00:30:34;9.80;;;2.13;;
3941;SDS011;1985;48.592;8.850;2023-04-15T00:33:00;10.55;;;1.90;;
3941;SDS011;1985;48.592;8.850;2023-04-15T00:35:29;10.32;;;2.38;;
3941;SDS011;1985;48.592;8.850;2023-04-15T00:37:56;16.70;;;2.40;;
3941;SDS011;1985;48.592;8.850;2023-04-15T00:40:22;11.63;;;2.30;;
3941;SDS011;1985;48.592;8.850;2023-04-15T00:42:49;13.37;;;2.30;;
3941;SDS011;1985;48.592;8.850;2023-04-15T00:45:15;14.80;;;2.33;;
3941;SDS011;1985;48.592;8.850;2023-04-15T00:47:41;9.80;;;1.95;;
3941;SDS011;1985;48.592;8.850;2023-04-15T00:50:08;11.00;;;2.10;;
3941;SDS011;1985;48.592;8.850;2023-04-15T00:52:35;10.85;;;2.10;;
3941;SDS011;1985;48.592;8.850;2023-04-15T00:55:01;11.93;;;2.10;;
3941;SDS011;1985;48.592;8.850;2023-04-15T00:57:28;11.05;;;1.90;;
3941;SDS011;1985;48.592;8.850;2023-04-15T00:59:54;9.70;;;1.70;;
3941;SDS011;1985;48.592;8.850;2023-04-15T01:02:20;11.25;;;1.90;;
3941;SDS011;1985;48.592;8.850;2023-04-15T01:04:46;11.30;;;2.10;;
3941;SDS011;1985;48.592;8.850;2023-04-15T01:07:12;12.23;;;1.80;;
3941;SDS011;1985;48.592;8.850;2023-04-15T01:09:38;10.65;;;2.00;;
3941;SDS011;1985;48.592;8.850;2023-04-15T01:12:04;10.90;;;2.20;;
3941;SDS011;1985;48.592;8.850;2023-04-15T01:14:31;9.70;;;1.60;;
3941;SDS011;1985;48.592;8.850;2023-04-15T01:16:58;11.65;;;2.10;;
3941;SDS011;1985;48.592;8.850;2023-04-15T01:19:24;10.50;;;2.07;;
3941;SDS011;1985;48.592;8.850;2023-04-15T01:21:50;10.87;;;2.20;;
3941;SDS011;1985;48.592;8.850;2023-04-15T01:24:17;9.52;;;1.92;;
3941;SDS011;1985;48.592;8.850;2023-04-15T01:26:43;9.82;;;2.20;;
3941;SDS011;1985;48.592;8.850;2023-04-15T01:29:09;10.10;;;2.03;;
3941;SDS011;1985;48.592;8.850;2023-04-15T01:31:35;10.50;;;2.10;;
3941;SDS011;1985;48.592;8.850;2023-04-15T01:34:01;12.15;;;2.15;;
3941;SDS011;1985;48.592;8.850;2023-04-15T01:36:27;10.40;;;1.83;;
3941;SDS011;1985;48.592;8.850;2023-04-15T01:38:53;11.20;;;2.13;;
3941;SDS011;1985;48.592;8.850;2023-04-15T01:41:25;10.05;;;1.55;;
3941;SDS011;1985;48.592;8.850;2023-04-15T01:43:52;11.30;;;2.00;;
3941;SDS011;1985;48.592;8.850;2023-04-15T01:46:18;9.95;;;2.00;;
3941;SDS011;1985;48.592;8.850;2023-04-15T01:48:44;13.85;;;2.20;;
3941;SDS011;1985;48.592;8.850;2023-04-15T01:51:10;9.23;;;1.83;;
3941;SDS011;1985;48.592;8.850;2023-04-15T01:53:36;10.57;;;2.00;;
3941;SDS011;1985;48.592;8.850;2023-04-15T01:56:01;10.18;;;2.17;;
3941;SDS011;1985;48.592;8.850;2023-04-15T01:58:27;9.98;;;1.92;;
3941;SDS011;1985;48.592;8.850;2023-04-15T02:00:53;10.80;;;1.80;;
3941;SDS011;1985;48.592;8.850;2023-04-15T02:03:18;9.60;;;2.10;;
3941;SDS011;1985;48.592;8.850;2023-04-15T02:05:44;8.87;;;1.90;;
3941;SDS011;1985;48.592;8.850;2023-04-15T02:08:09;9.07;;;1.60;;
3941;SDS011;1985;48.592;8.850;2023-04-15T02:10:36;11.05;;;1.92;;
3941;SDS011;1985;48.592;8.850;2023-04-15T02:13:02;12.27;;;2.50;;
3941;SDS011;1985;48.592;8.850;2023-04-15T02:15:28;10.68;;;1.90;;
3941;SDS011;1985;48.592;8.850;2023-04-15T02:17:54;11.40;;;2.00;;
3941;SDS011;1985;48.592;8.850;2023-04-15T02:20:20;9.35;;;1.77;;
3941;SDS011;1985;48.592;8.850;2023-04-15T02:22:47;11.15;;;2.28;;
3941;SDS011;1985;48.592;8.850;2023-04-15T02:25:13;10.15;;;2.40;;
3941;SDS011;1985;48.592;8.850;2023-04-15T02:27:40;11.10;;;2.20;;
3941;SDS011;1985;48.592;8.850;2023-04-15T02:30:06;11.02;;;2.45;;
3941;SDS011;1985;48.592;8.850;2023-04-15T02:32:33;13.02;;;2.40;;
3941;SDS011;1985;48.592;8.850;2023-04-15T02:35:04;10.43;;;2.27;;
3941;SDS011;1985;48.592;8.850;2023-04-15T02:37:31;10.00;;;2.40;;
3941;SDS011;1985;48.592;8.850;2023-04-15T02:40:01;11.97;;;2.80;;
3941;SDS011;1985;48.592;8.850;2023-04-15T02:42:26;12.80;;;2.30;;
3941;SDS011;1985;48.592;8.850;2023-04-15T02:44:54;10.70;;;2.20;;
3941;SDS011;1985;48.592;8.850;2023-04-15T02:47:20;11.75;;;2.20;;
3941;SDS011;1985;48.592;8.850;2023-04-15T02:49:46;11.88;;;2.50;;
3941;SDS011;1985;48.592;8.850;2023-04-15T02:52:11;10.20;;;2.40;;
3941;SDS011;1985;48.592;8.850;2023-04-15T02:54:37;10.93;;;2.00;;
3941;SDS011;1985;48.592;8.850;2023-04-15T02:57:03;8.57;;;1.63;;
3941;SDS011;1985;48.592;8.850;2023-04-15T02:59:30;10.18;;;1.92;;
3941;SDS011;1985;48.592;8.850;2023-04-15T03:01:56;10.73;;;2.00;;
3941;SDS011;1985;48.592;8.850;2023-04-15T03:04:24;10.23;;;2.30;;
3941;SDS011;1985;48.592;8.850;2023-04-15T03:06:50;9.60;;;2.00;;
3941;SDS011;1985;48.592;8.850;2023-04-15T03:09:16;9.50;;;2.10;;
3941;SDS011;1985;48.592;8.850;2023-04-15T03:11:42;10.35;;;1.95;;
3941;SDS011;1985;48.592;8.850;2023-04-15T03:14:07;14.90;;;2.30;;
3941;SDS011;1985;48.592;8.850;2023-04-15T03:16:33;9.03;;;1.90;;
3941;SDS011;1985;48.592;8.850;2023-04-15T03:18:59;13.45;;;2.40;;
3941;SDS011;1985;48.592;8.850;2023-04-15T03:21:24;11.73;;;2.87;;
3941;SDS011;1985;48.592;8.850;2023-04-15T03:23:50;10.50;;;2.25;;
3941;SDS011;1985;48.592;8.850;2023-04-15T03:26:22;11.00;;;2.10;;
3941;SDS011;1985;48.592;8.850;2023-04-15T03:28:52;13.93;;;2.30;;
3941;SDS011;1985;48.592;8.850;2023-04-15T03:31:18;9.80;;;2.20;;
3941;SDS011;1985;48.592;8.850;2023-04-15T03:33:43;10.75;;;2.20;;
3941;SDS011;1985;48.592;8.850;2023-04-15T03:36:09;10.00;;;2.30;;
3941;SDS011;1985;48.592;8.850;2023-04-15T03:38:35;11.50;;;2.30;;
3941;SDS011;1985;48.592;8.850;2023-04-15T03:41:01;11.80;;;2.20;;
3941;SDS011;1985;48.592;8.850;2023-04-15T03:43:26;9.35;;;1.80;;
3941;SDS011;1985;48.592;8.850;2023-04-15T03:45:52;10.70;;;2.50;;
3941;SDS011;1985;48.592;8.850;2023-04-15T03:48:17;12.48;;;1.90;;
3941;SDS011;1985;48.592;8.850;2023-04-15T03:50:43;10.07;;;2.00;;
3941;SDS011;1985;48.592;8.850;2023-04-15T03:53:09;9.30;;;1.80;;
3941;SDS011;1985;48.592;8.850;2023-04-15T03:55:34;9.20;;;1.85;;
3941;SDS011;1985;48.592;8.850;2023-04-15T03:58:00;8.95;;;1.70;;
3941;SDS011;1985;48.592;8.850;2023-04-15T04:00:26;9.50;;;1.98;;
3941;SDS011;1985;48.592;8.850;2023-04-15T04:02:52;10.10;;;2.10;;
3941;SDS011;1985;48.592;8.850;2023-04-15T04:05:17;10.20;;;2.00;;
3941;SDS011;1985;48.592;8.850;2023-04-15T04:07:43;10.73;;;2.30;;
3941;SDS011;1985;48.592;8.850;2023-04-15T04:10:08;10.80;;;2.10;;
3941;SDS011;1985;48.592;8.850;2023-04-15T04:12:34;10.98;;;2.10;;
3941;SDS011;1985;48.592;8.850;2023-04-15T04:15:00;10.90;;;2.00;;
3941;SDS011;1985;48.592;8.850;2023-04-15T04:17:26;12.07;;;1.90;;
3941;SDS011;1985;48.592;8.850;2023-04-15T04:19:51;8.77;;;1.90;;
3941;SDS011;1985;48.592;8.850;2023-04-15T04:22:20;9.55;;;2.00;;
3941;SDS011;1985;48.592;8.850;2023-04-15T04:24:48;11.15;;;2.10;;
3941;SDS011;1985;48.592;8.850;2023-04-15T04:27:13;10.13;;;2.40;;
3941;SDS011;1985;48.592;8.850;2023-04-15T04:29:39;12.20;;;2.95;;
3941;SDS011;1985;48.592;8.850;2023-04-15T04:32:05;10.88;;;2.58;;
3941;SDS011;1985;48.592;8.850;2023-04-15T04:34:31;10.90;;;2.37;;
3941;SDS011;1985;48.592;8.850;2023-04-15T04:36:56;11.63;;;2.00;;
3941;SDS011;1985;48.592;8.850;2023-04-15T04:39:22;10.40;;;2.55;;
3941;SDS011;1985;48.592;8.850;2023-04-15T04:41:48;9.97;;;2.60;;
3941;SDS011;1985;48.592;8.850;2023-04-15T04:44:14;10.60;;;2.30;;
3941;SDS011;1985;48.592;8.850;2023-04-15T04:46:40;10.20;;;2.28;;
3941;SDS011;1985;48.592;8.850;2023-04-15T04:49:05;10.00;;;2.30;;
3941;SDS011;1985;48.592;8.850;2023-04-15T04:51:31;10.47;;;2.50;;
3941;SDS011;1985;48.592;8.850;2023-04-15T04:53:57;11.00;;;2.70;;
3941;SDS011;1985;48.592;8.850;2023-04-15T04:56:22;11.00;;;2.00;;
3941;SDS011;1985;48.592;8.850;2023-04-15T04:58:48;10.67;;;2.30;;
3941;SDS011;1985;48.592;8.850;2023-04-15T05:01:13;10.30;;;2.10;;
3941;SDS011;1985;48.592;8.850;2023-04-15T05:03:39;11.90;;;2.47;;
3941;SDS011;1985;48.592;8.850;2023-04-15T05:06:05;11.40;;;2.47;;
3941;SDS011;1985;48.592;8.850;2023-04-15T05:08:32;13.23;;;2.30;;
3941;SDS011;1985;48.592;8.850;2023-04-15T05:10:58;9.97;;;2.10;;
3941;SDS011;1985;48.592;8.850;2023-04-15T05:13:24;12.60;;;2.50;;
3941;SDS011;1985;48.592;8.850;2023-04-15T05:15:50;9.82;;;2.20;;
3941;SDS011;1985;48.592;8.850;2023-04-15T05:18:15;13.15;;;3.75;;
3941;SDS011;1985;48.592;8.850;2023-04-15T05:20:41;14.67;;;2.70;;
3941;SDS011;1985;48.592;8.850;2023-04-15T05:23:07;10.57;;;2.22;;
3941;SDS011;1985;48.592;8.850;2023-04-15T05:25:32;10.20;;;2.40;;
3941;SDS011;1985;48.592;8.850;2023-04-15T05:27:58;13.10;;;2.50;;
3941;SDS011;1985;48.592;8.850;2023-04-15T05:30:24;13.80;;;3.08;;
3941;SDS011;1985;48.592;8.850;2023-04-15T05:32:50;13.10;;;3.08;;
3941;SDS011;1985;48.592;8.850;2023-04-15T05:35:15;10.07;;;2.40;;
3941;SDS011;1985;48.592;8.850;2023-04-15T05:37:41;10.40;;;2.50;;
3941;SDS011;1985;48.592;8.850;2023-04-15T05:40:07;12.60;;;2.50;;
3941;SDS011;1985;48.592;8.850;2023-04-15T05:42:34;11.60;;;2.73;;
3941;SDS011;1985;48.592;8.850;2023-04-15T05:45:00;10.43;;;2.33;;
3941;SDS011;1985;48.592;8.850;2023-04-15T05:47:29;10.60;;;2.35;;
3941;SDS011;1985;48.592;8.850;2023-04-15T05:49:55;10.10;;;2.58;;
3941;SDS011;1985;48.592;8.850;2023-04-15T05:52:20;10.75;;;2.70;;
3941;SDS011;1985;48.592;8.850;2023-04-15T05:54:46;9.43;;;2.60;;
3941;SDS011;1985;48.592;8.850;2023-04-15T05:57:12;14.20;;;2.53;;
3941;SDS011;1985;48.592;8.850;2023-04-15T05:59:37;11.35;;;2.60;;
3941;SDS011;1985;48.592;8.850;2023-04-15T06:02:03;10.00;;;2.60;;
3941;SDS011;1985;48.592;8.850;2023-04-15T06:04:28;10.63;;;2.78;;
3941;SDS011;1985;48.592;8.850;2023-04-15T06:06:54;12.10;;;3.10;;
3941;SDS011;1985;48.592;8.850;2023-04-15T06:09:20;11.10;;;2.97;;
3941;SDS011;1985;48.592;8.850;2023-04-15T06:11:45;13.68;;;2.80;;
3941;SDS011;1985;48.592;8.850;2023-04-15T06:14:11;9.90;;;2.30;;
3941;SDS011;1985;48.592;8.850;2023-04-15T06:16:36;14.60;;;3.30;;
3941;SDS011;1985;48.592;8.850;2023-04-15T06:19:02;12.30;;;2.90;;
3941;SDS011;1985;48.592;8.850;2023-04-15T06:21:28;11.80;;;2.70;;
3941;SDS011;1985;48.592;8.850;2023-04-15T06:23:55;10.17;;;2.40;;
3941;SDS011;1985;48.592;8.850;2023-04-15T06:26:22;13.50;;;2.92;;
3941;SDS011;1985;48.592;8.850;2023-04-15T06:28:47;11.27;;;2.50;;
3941;SDS011;1985;48.592;8.850;2023-04-15T06:31:13;13.40;;;3.13;;
3941;SDS011;1985;48.592;8.850;2023-04-15T06:33:39;13.20;;;3.70;;
3941;SDS011;1985;48.592;8.850;2023-04-15T06:36:04;13.43;;;2.78;;
3941;SDS011;1985;48.592;8.850;2023-04-15T06:38:30;11.60;;;2.30;;
3941;SDS011;1985;48.592;8.850;2023-04-15T06:40:56;12.00;;;2.90;;
3941;SDS011;1985;48.592;8.850;2023-04-15T06:43:21;13.60;;;3.20;;
3941;SDS011;1985;48.592;8.850;2023-04-15T06:45:47;11.43;;;2.60;;
3941;SDS011;1985;48.592;8.850;2023-04-15T06:48:12;12.68;;;3.13;;
3941;SDS011;1985;48.592;8.850;2023-04-15T06:50:38;11.53;;;2.53;;
3941;SDS011;1985;48.592;8.850;2023-04-15T06:53:04;12.97;;;3.20;;
3941;SDS011;1985;48.592;8.850;2023-04-15T06:55:29;11.70;;;3.23;;
3941;SDS011;1985;48.592;8.850;2023-04-15T06:57:55;11.38;;;2.75;;
3941;SDS011;1985;48.592;8.850;2023-04-15T07:00:21;14.07;;;3.00;;
3941;SDS011;1985;48.592;8.850;2023-04-15T07:02:47;11.80;;;2.50;;
3941;SDS011;1985;48.592;8.850;2023-04-15T07:05:12;11.20;;;2.70;;
3941;SDS011;1985;48.592;8.850;2023-04-15T07:07:38;12.50;;;2.95;;
3941;SDS011;1985;48.592;8.850;2023-04-15T07:10:04;10.10;;;2.70;;
3941;SDS011;1985;48.592;8.850;2023-04-15T07:12:30;13.80;;;3.00;;
3941;SDS011;1985;48.592;8.850;2023-04-15T07:14:55;11.17;;;2.50;;
3941;SDS011;1985;48.592;8.850;2023-04-15T07:17:21;10.57;;;2.80;;
3941;SDS011;1985;48.592;8.850;2023-04-15T07:19:47;9.75;;;2.70;;
3941;SDS011;1985;48.592;8.850;2023-04-15T07:22:13;13.02;;;2.50;;
3941;SDS011;1985;48.592;8.850;2023-04-15T07:24:38;12.90;;;2.60;;
3941;SDS011;1985;48.592;8.850;2023-04-15T07:27:04;12.23;;;2.50;;
3941;SDS011;1985;48.592;8.850;2023-04-15T07:29:30;10.30;;;2.70;;
3941;SDS011;1985;48.592;8.850;2023-04-15T07:31:55;13.13;;;3.03;;
3941;SDS011;1985;48.592;8.850;2023-04-15T07:34:21;10.03;;;2.53;;
3941;SDS011;1985;48.592;8.850;2023-04-15T07:36:46;12.67;;;2.80;;
3941;SDS011;1985;48.592;8.850;2023-04-15T07:39:14;10.93;;;2.40;;
3941;SDS011;1985;48.592;8.850;2023-04-15T07:41:40;12.38;;;2.72;;
3941;SDS011;1985;48.592;8.850;2023-04-15T07:44:06;11.70;;;2.73;;
3941;SDS011;1985;48.592;8.850;2023-04-15T07:46:31;11.43;;;2.60;;
3941;SDS011;1985;48.592;8.850;2023-04-15T07:48:57;11.77;;;2.60;;
3941;SDS011;1985;48.592;8.850;2023-04-15T07:51:22;11.80;;;2.50;;
3941;SDS011;1985;48.592;8.850;2023-04-15T07:53:48;11.98;;;2.58;;
3941;SDS011;1985;48.592;8.850;2023-04-15T07:56:14;12.20;;;3.50;;
3941;SDS011;1985;48.592;8.850;2023-04-15T07:58:40;9.20;;;2.20;;
3941;SDS011;1985;48.592;8.850;2023-04-15T08:01:06;12.55;;;2.40;;
3941;SDS011;1985;48.592;8.850;2023-04-15T08:03:32;12.18;;;3.00;;
3941;SDS011;1985;48.592;8.850;2023-04-15T08:05:58;10.48;;;2.80;;
3941;SDS011;1985;48.592;8.850;2023-04-15T08:08:23;10.27;;;2.30;;
3941;SDS011;1985;48.592;8.850;2023-04-15T08:10:50;11.60;;;2.30;;
3941;SDS011;1985;48.592;8.850;2023-04-15T08:13:16;10.80;;;2.63;;
3941;SDS011;1985;48.592;8.850;2023-04-15T08:15:42;12.60;;;2.70;;
3941;SDS011;1985;48.592;8.850;2023-04-15T08:18:07;9.77;;;2.13;;
3941;SDS011;1985;48.592;8.850;2023-04-15T08:20:33;11.20;;;2.40;;
3941;SDS011;1985;48.592;8.850;2023-04-15T08:22:59;11.15;;;2.17;;
3941;SDS011;1985;48.592;8.850;2023-04-15T08:25:24;13.20;;;2.30;;
3941;SDS011;1985;48.592;8.850;2023-04-15T08:27:51;9.93;;;2.50;;
3941;SDS011;1985;48.592;8.850;2023-04-15T08:30:19;12.80;;;2.40;;
3941;SDS011;1985;48.592;8.850;2023-04-15T08:32:45;12.35;;;2.83;;
3941;SDS011;1985;48.592;8.850;2023-04-15T08:35:11;13.23;;;2.53;;
3941;SDS011;1985;48.592;8.850;2023-04-15T08:37:37;13.18;;;2.70;;
3941;SDS011;1985;48.592;8.850;2023-04-15T08:40:03;10.13;;;2.50;;
3941;SDS011;1985;48.592;8.850;2023-04-15T08:42:36;12.77;;;2.50;;
3941;SDS011;1985;48.592;8.850;2023-04-15T08:45:07;16.63;;;3.20;;
3941;SDS011;1985;48.592;8.850;2023-04-15T08:47:37;11.40;;;2.70;;
3941;SDS011;1985;48.592;8.850;2023-04-15T08:50:04;13.55;;;2.60;;
3941;SDS011;1985;48.592;8.850;2023-04-15T08:52:34;14.55;;;2.80;;
3941;SDS011;1985;48.592;8.850;2023-04-15T08:55:01;11.60;;;2.60;;
3941;SDS011;1985;48.592;8.850;2023-04-15T08:57:30;11.18;;;2.33;;
3941;SDS011;1985;48.592;8.850;2023-04-15T08:59:57;11.60;;;3.00;;
3941;SDS011;1985;48.592;8.850;2023-04-15T09:02:23;14.10;;;3.10;;
3941;SDS011;1985;48.592;8.850;2023-04-15T09:04:51;13.20;;;3.25;;
3941;SDS011;1985;48.592;8.850;2023-04-15T09:07:17;19.80;;;3.63;;
3941;SDS011;1985;48.592;8.850;2023-04-15T09:09:42;15.40;;;3.90;;
3941;SDS011;1985;48.592;8.850;2023-04-15T09:12:08;15.00;;;3.90;;
3941;SDS011;1985;48.592;8.850;2023-04-15T09:14:35;17.90;;;3.80;;
3941;SDS011;1985;48.592;8.850;2023-04-15T09:17:02;11.52;;;3.20;;
3941;SDS011;1985;48.592;8.850;2023-04-15T09:19:28;12.15;;;3.17;;
3941;SDS011;1985;48.592;8.850;2023-04-15T09:21:55;13.93;;;3.97;;
3941;SDS011;1985;48.592;8.850;2023-04-15T09:24:22;13.45;;;4.32;;
3941;SDS011;1985;48.592;8.850;2023-04-15T09:26:52;12.93;;;3.40;;
3941;SDS011;1985;48.592;8.850;2023-04-15T09:29:18;12.98;;;3.25;;
3941;SDS011;1985;48.592;8.850;2023-04-15T09:31:45;14.93;;;3.33;;
3941;SDS011;1985;48.592;8.850;2023-04-15T09:34:11;12.15;;;2.97;;
3941;SDS011;1985;48.592;8.850;2023-04-15T09:39:11;12.73;;;3.10;;
3941;SDS011;1985;48.592;8.850;2023-04-15T09:41:37;14.45;;;3.10;;
3941;SDS011;1985;48.592;8.850;2023-04-15T09:44:04;11.98;;;3.40;;
3941;SDS011;1985;48.592;8.850;2023-04-15T09:46:40;12.95;;;3.67;;
3941;SDS011;1985;48.592;8.850;2023-04-15T09:49:07;13.30;;;3.50;;
3941;SDS011;1985;48.592;8.850;2023-04-15T09:51:34;13.20;;;2.97;;
3941;SDS011;1985;48.592;8.850;2023-04-15T09:54:02;13.50;;;2.90;;
3941;SDS011;1985;48.592;8.850;2023-04-15T09:56:38;11.73;;;3.60;;
3941;SDS011;1985;48.592;8.850;2023-04-15T09:59:06;10.98;;;2.40;;
3941;SDS011;1985;48.592;8.850;2023-04-15T10:01:33;8.65;;;1.40;;
3941;SDS011;1985;48.592;8.850;2023-04-15T10:04:03;11.77;;;1.80;;
3941;SDS011;1985;48.592;8.850;2023-04-15T10:06:29;11.75;;;2.00;;
3941;SDS011;1985;48.592;8.850;2023-04-15T10:08:58;9.50;;;1.90;;
3941;SDS011;1985;48.592;8.850;2023-04-15T10:11:27;14.93;;;2.55;;
3941;SDS011;1985;48.592;8.850;2023-04-15T10:13:53;10.30;;;2.10;;
3941;SDS011;1985;48.592;8.850;2023-04-15T10:16:20;10.73;;;2.30;;
3941;SDS011;1985;48.592;8.850;2023-04-15T10:18:53;11.47;;;2.03;;
3941;SDS011;1985;48.592;8.850;2023-04-15T10:21:20;15.43;;;2.40;;
3941;SDS011;1985;48.592;8.850;2023-04-15T10:23:47;13.10;;;2.20;;
3941;SDS011;1985;48.592;8.850;2023-04-15T10:26:14;11.70;;;2.00;;
3941;SDS011;1985;48.592;8.850;2023-04-15T10:28:41;11.00;;;1.80;;
3941;SDS011;1985;48.592;8.850;2023-04-15T10:31:07;11.82;;;2.00;;
3941;SDS011;1985;48.592;8.850;2023-04-15T10:33:38;9.70;;;1.60;;
3941;SDS011;1985;48.592;8.850;2023-04-15T10:36:05;10.93;;;1.60;;
3941;SDS011;1985;48.592;8.850;2023-04-15T10:38:38;15.37;;;1.70;;
3941;SDS011;1985;48.592;8.850;2023-04-15T10:41:23;14.10;;;1.60;;
3941;SDS011;1985;48.592;8.850;2023-04-15T10:44:00;11.15;;;1.50;;
3941;SDS011;1985;48.592;8.850;2023-04-15T10:49:11;10.20;;;1.70;;
3941;SDS011;1985;48.592;8.850;2023-04-15T10:51:56;9.40;;;1.20;;
3941;SDS011;1985;48.592;8.850;2023-04-15T10:56:50;9.55;;;1.88;;
3941;SDS011;1985;48.592;8.850;2023-04-15T10:59:28;10.18;;;1.48;;
3941;SDS011;1985;48.592;8.850;2023-04-15T11:02:01;10.52;;;1.40;;
3941;SDS011;1985;48.592;8.850;2023-04-15T11:12:41;9.93;;;1.40;;
3941;SDS011;1985;48.592;8.850;2023-04-15T11:20:39;11.70;;;1.65;;
3941;SDS011;1985;48.592;8.850;2023-04-15T11:23:06;12.30;;;1.80;;
3941;SDS011;1985;48.592;8.850;2023-04-15T11:25:33;9.10;;;1.37;;
3941;SDS011;1985;48.592;8.850;2023-04-15T11:28:00;9.43;;;1.83;;
3941;SDS011;1985;48.592;8.850;2023-04-15T11:30:31;10.38;;;1.88;;
3941;SDS011;1985;48.592;8.850;2023-04-15T11:33:02;10.55;;;1.70;;
3941;SDS011;1985;48.592;8.850;2023-04-15T11:35:32;10.90;;;2.22;;
3941;SDS011;1985;48.592;8.850;2023-04-15T11:38:01;10.23;;;1.92;;
3941;SDS011;1985;48.592;8.850;2023-04-15T11:40:33;12.05;;;2.13;;
3941;SDS011;1985;48.592;8.850;2023-04-15T11:43:10;11.85;;;1.60;;
3941;SDS011;1985;48.592;8.850;2023-04-15T11:45:37;10.75;;;1.95;;
3941;SDS011;1985;48.592;8.850;2023-04-15T11:48:27;9.20;;;2.10;;
3941;SDS011;1985;48.592;8.850;2023-04-15T11:53:20;11.85;;;2.03;;
3941;SDS011;1985;48.592;8.850;2023-04-15T11:55:47;12.65;;;1.92;;
3941;SDS011;1985;48.592;8.850;2023-04-15T12:00:48;10.40;;;1.70;;
3941;SDS011;1985;48.592;8.850;2023-04-15T12:11:13;11.10;;;2.30;;
3941;SDS011;1985;48.592;8.850;2023-04-15T12:13:43;13.52;;;2.15;;
3941;SDS011;1985;48.592;8.850;2023-04-15T12:16:12;11.18;;;2.20;;
3941;SDS011;1985;48.592;8.850;2023-04-15T12:18:43;12.85;;;2.20;;
3941;SDS011;1985;48.592;8.850;2023-04-15T12:21:14;11.68;;;2.33;;
3941;SDS011;1985;48.592;8.850;2023-04-15T12:23:53;11.30;;;2.40;;
3941;SDS011;1985;48.592;8.850;2023-04-15T12:26:30;13.82;;;2.47;;
3941;SDS011;1985;48.592;8.850;2023-04-15T12:29:02;9.75;;;2.28;;
3941;SDS011;1985;48.592;8.850;2023-04-15T12:31:29;13.48;;;2.45;;
3941;SDS011;1985;48.592;8.850;2023-04-15T12:33:58;13.05;;;2.90;;
3941;SDS011;1985;48.592;8.850;2023-04-15T12:36:25;10.45;;;2.13;;
3941;SDS011;1985;48.592;8.850;2023-04-15T12:38:51;12.88;;;1.80;;
3941;SDS011;1985;48.592;8.850;2023-04-15T12:41:17;11.30;;;2.00;;
3941;SDS011;1985;48.592;8.850;2023-04-15T12:43:44;9.88;;;1.90;;
3941;SDS011;1985;48.592;8.850;2023-04-15T12:46:11;12.55;;;1.90;;
3941;SDS011;1985;48.592;8.850;2023-04-15T12:48:37;11.20;;;1.92;;
3941;SDS011;1985;48.592;8.850;2023-04-15T12:51:03;14.23;;;2.60;;
3941;SDS011;1985;48.592;8.850;2023-04-15T12:53:28;10.37;;;1.70;;
3941;SDS011;1985;48.592;8.850;2023-04-15T12:55:55;11.02;;;2.17;;
3941;SDS011;1985;48.592;8.850;2023-04-15T12:58:20;12.70;;;2.10;;
3941;SDS011;1985;48.592;8.850;2023-04-15T13:00:46;10.00;;;2.85;;
3941;SDS011;1985;48.592;8.850;2023-04-15T13:03:12;13.20;;;3.20;;
3941;SDS011;1985;48.592;8.850;2023-04-15T13:05:38;12.60;;;2.78;;
3941;SDS011;1985;48.592;8.850;2023-04-15T13:08:04;11.50;;;2.40;;
3941;SDS011;1985;48.592;8.850;2023-04-15T13:10:30;12.82;;;3.13;;
3941;SDS011;1985;48.592;8.850;2023-04-15T13:12:56;10.88;;;2.70;;
3941;SDS011;1985;48.592;8.850;2023-04-15T13:15:22;12.98;;;2.75;;
3941;SDS011;1985;48.592;8.850;2023-04-15T13:17:48;13.93;;;2.80;;
3941;SDS011;1985;48.592;8.850;2023-04-15T13:20:14;12.00;;;2.85;;
3941;SDS011;1985;48.592;8.850;2023-04-15T13:22:40;12.57;;;2.63;;
3941;SDS011;1985;48.592;8.850;2023-04-15T13:25:06;12.40;;;2.67;;
3941;SDS011;1985;48.592;8.850;2023-04-15T13:27:32;10.93;;;2.50;;
3941;SDS011;1985;48.592;8.850;2023-04-15T13:29:58;13.98;;;2.70;;
3941;SDS011;1985;48.592;8.850;2023-04-15T13:32:24;11.93;;;2.80;;
3941;SDS011;1985;48.592;8.850;2023-04-15T13:34:50;13.30;;;2.80;;
3941;SDS011;1985;48.592;8.850;2023-04-15T13:37:15;13.48;;;2.90;;
3941;SDS011;1985;48.592;8.850;2023-04-15T13:39:41;9.85;;;2.50;;
3941;SDS011;1985;48.592;8.850;2023-04-15T13:42:07;11.57;;;2.70;;
3941;SDS011;1985;48.592;8.850;2023-04-15T13:44:33;11.40;;;2.70;;
3941;SDS011;1985;48.592;8.850;2023-04-15T13:46:59;11.48;;;2.40;;
3941;SDS011;1985;48.592;8.850;2023-04-15T13:49:24;12.35;;;2.90;;
3941;SDS011;1985;48.592;8.850;2023-04-15T13:51:50;12.25;;;3.00;;
3941;SDS011;1985;48.592;8.850;2023-04-15T13:54:16;10.02;;;1.90;;
3941;SDS011;1985;48.592;8.850;2023-04-15T13:56:41;10.33;;;2.47;;
3941;SDS011;1985;48.592;8.850;2023-04-15T13:59:07;10.68;;;2.40;;
3941;SDS011;1985;48.592;8.850;2023-04-15T14:01:33;11.53;;;2.80;;
3941;SDS011;1985;48.592;8.850;2023-04-15T14:03:59;12.65;;;3.20;;
3941;SDS011;1985;48.592;8.850;2023-04-15T14:06:25;13.17;;;3.13;;
3941;SDS011;1985;48.592;8.850;2023-04-15T14:08:52;13.10;;;3.20;;
3941;SDS011;1985;48.592;8.850;2023-04-15T14:11:18;13.90;;;3.20;;
3941;SDS011;1985;48.592;8.850;2023-04-15T14:13:44;11.00;;;2.80;;
3941;SDS011;1985;48.592;8.850;2023-04-15T14:16:09;12.80;;;3.13;;
3941;SDS011;1985;48.592;8.850;2023-04-15T14:18:35;13.23;;;2.53;;
3941;SDS011;1985;48.592;8.850;2023-04-15T14:21:01;13.50;;;3.53;;
3941;SDS011;1985;48.592;8.850;2023-04-15T14:23:27;10.90;;;2.40;;
3941;SDS011;1985;48.592;8.850;2023-04-15T14:25:53;12.07;;;2.63;;
3941;SDS011;1985;48.592;8.850;2023-04-15T14:28:19;12.30;;;2.70;;
3941;SDS011;1985;48.592;8.850;2023-04-15T14:30:44;14.13;;;3.10;;
3941;SDS011;1985;48.592;8.850;2023-04-15T14:33:10;11.73;;;2.40;;
3941;SDS011;1985;48.592;8.850;2023-04-15T14:35:36;13.25;;;3.00;;
3941;SDS011;1985;48.592;8.850;2023-04-15T14:38:02;11.43;;;3.30;;
3941;SDS011;1985;48.592;8.850;2023-04-15T14:40:27;13.93;;;2.60;;
3941;SDS011;1985;48.592;8.850;2023-04-15T14:42:53;11.83;;;3.10;;
3941;SDS011;1985;48.592;8.850;2023-04-15T14:45:19;10.45;;;2.85;;
3941;SDS011;1985;48.592;8.850;2023-04-15T14:47:45;10.83;;;2.67;;
3941;SDS011;1985;48.592;8.850;2023-04-15T14:50:11;9.98;;;2.20;;
3941;SDS011;1985;48.592;8.850;2023-04-15T14:52:37;11.97;;;2.50;;
3941;SDS011;1985;48.592;8.850;2023-04-15T14:55:06;10.05;;;2.10;;
3941;SDS011;1985;48.592;8.850;2023-04-15T14:57:34;12.70;;;2.30;;
3941;SDS011;1985;48.592;8.850;2023-04-15T15:00:00;9.10;;;2.13;;
3941;SDS011;1985;48.592;8.850;2023-04-15T15:02:26;10.85;;;2.22;;
3941;SDS011;1985;48.592;8.850;2023-04-15T15:04:52;9.17;;;2.30;;
3941;SDS011;1985;48.592;8.850;2023-04-15T15:07:18;10.27;;;2.40;;
3941;SDS011;1985;48.592;8.850;2023-04-15T15:09:44;10.77;;;2.83;;
3941;SDS011;1985;48.592;8.850;2023-04-15T15:12:10;11.60;;;2.53;;
3941;SDS011;1985;48.592;8.850;2023-04-15T15:14:35;10.30;;;2.70;;
3941;SDS011;1985;48.592;8.850;2023-04-15T15:17:01;10.10;;;2.37;;
3941;SDS011;1985;48.592;8.850;2023-04-15T15:19:27;10.50;;;2.90;;
3941;SDS011;1985;48.592;8.850;2023-04-15T15:21:52;11.70;;;2.88;;
3941;SDS011;1985;48.592;8.850;2023-04-15T15:24:18;11.00;;;2.60;;
3941;SDS011;1985;48.592;8.850;2023-04-15T15:26:43;9.33;;;2.30;;
3941;SDS011;1985;48.592;8.850;2023-04-15T15:29:09;12.13;;;2.80;;
3941;SDS011;1985;48.592;8.850;2023-04-15T15:31:35;14.30;;;3.83;;
3941;SDS011;1985;48.592;8.850;2023-04-15T15:34:00;15.00;;;3.30;;